Time;durP1;ratioP1;P1;durP2;ratioP2;P2;SDS_P1;SDS_P2;PMS_P1;PMS_P2;Temp;Humidity;BMP_temperature;BMP_pressure;BME280_temperature;BME280_humidity;BME280_pressure;Samples;Min_cycle;Max_cycle;Signal;HPM_P1;HPM_P2
2023/03/10 00:01:09;;;;;;;1.90;1.20;;;;;;;;;;5120538;28;20206;-63
2023/03/10 00:03:37;;;;;;;1.85;1.40;;;;;;;;;;5120001;28;20203;-64
2023/03/10 00:06:05;;;;;;;2.70;1.35;;;;;;;;;;5120264;28;20221;-62
2023/03/10 00:08:33;;;;;;;2.72;1.50;;;;;;;;;;5120227;28;20199;-63
2023/03/10 00:11:01;;;;;;;1.77;1.27;;;;;;;;;;5120295;28;20202;-63
2023/03/10 00:13:30;;;;;;;2.00;1.42;;;;;;;;;;5120258;28;20297;-63
2023/03/10 00:15:58;;;;;;;1.92;1.33;;;;;;;;;;5119966;28;20213;-63
2023/03/10 00:18:26;;;;;;;1.55;1.17;;;;;;;;;;5119992;28;20296;-63
2023/03/10 00:20:54;;;;;;;2.22;1.38;;;;;;;;;;5119944;28;20490;-62
2023/03/10 00:23:22;;;;;;;1.60;1.30;;;;;;;;;;5119984;28;20207;-63
2023/03/10 00:25:54;;;;;;;1.23;1.08;;;;;;;;;;5120236;28;20218;-63
2023/03/10 00:28:22;;;;;;;2.10;1.42;;;;;;;;;;5119736;28;20209;-63
2023/03/10 00:31:01;;;;;;;1.38;1.05;;;;;;;;;;5120011;28;20211;-63
2023/03/10 00:33:31;;;;;;;1.55;1.15;;;;;;;;;;5119725;28;20642;-63
2023/03/10 00:36:02;;;;;;;2.00;1.30;;;;;;;;;;5119666;28;20298;-64
2023/03/10 00:38:30;;;;;;;1.83;1.40;;;;;;;;;;5119860;28;20226;-63
2023/03/10 00:41:01;;;;;;;1.90;1.17;;;;;;;;;;5119744;28;20572;-63
2023/03/10 00:43:29;;;;;;;1.67;1.33;;;;;;;;;;5119197;28;20575;-63
2023/03/10 00:45:57;;;;;;;1.73;1.35;;;;;;;;;;5119530;28;20230;-62
2023/03/10 00:48:27;;;;;;;1.77;1.20;;;;;;;;;;5119145;28;20199;-64
2023/03/10 00:50:54;;;;;;;1.48;1.02;;;;;;;;;;5119571;28;20203;-63
2023/03/10 00:53:22;;;;;;;2.47;1.25;;;;;;;;;;5119387;28;20206;-63
2023/03/10 00:56:00;;;;;;;1.38;1.02;;;;;;;;;;5119159;28;20203;-63
2023/03/10 00:58:28;;;;;;;1.38;1.02;;;;;;;;;;5118774;28;20355;-63
2023/03/10 01:00:56;;;;;;;2.28;1.02;;;;;;;;;;5119360;28;20209;-63
2023/03/10 01:03:24;;;;;;;1.73;1.10;;;;;;;;;;5118758;28;20253;-63
2023/03/10 01:05:53;;;;;;;1.42;0.88;;;;;;;;;;5119142;28;20202;-63
2023/03/10 01:08:21;;;;;;;1.73;1.00;;;;;;;;;;5119369;28;20207;-63
2023/03/10 01:10:49;;;;;;;2.05;1.08;;;;;;;;;;5119053;28;20207;-63
2023/03/10 01:13:18;;;;;;;1.55;1.17;;;;;;;;;;5119277;28;20214;-63
2023/03/10 01:15:49;;;;;;;1.55;1.02;;;;;;;;;;5119137;28;20203;-64
2023/03/10 01:18:18;;;;;;;1.67;1.10;;;;;;;;;;5118680;28;20227;-62
2023/03/10 01:20:46;;;;;;;1.60;1.00;;;;;;;;;;5118958;28;20489;-64
2023/03/10 01:23:17;;;;;;;1.73;1.00;;;;;;;;;;5118444;28;20203;-63
2023/03/10 01:25:45;;;;;;;1.45;1.00;;;;;;;;;;5118781;28;20206;-63
2023/03/10 01:28:13;;;;;;;1.30;1.10;;;;;;;;;;5118863;28;20199;-63
2023/03/10 01:30:41;;;;;;;2.15;1.17;;;;;;;;;;5113511;28;20231;-63
2023/03/10 01:33:09;;;;;;;1.45;1.00;;;;;;;;;;5115755;28;20230;-63
2023/03/10 01:35:37;;;;;;;1.52;1.10;;;;;;;;;;5118451;28;20629;-63
2023/03/10 01:38:05;;;;;;;2.30;0.88;;;;;;;;;;5118534;28;20211;-63
2023/03/10 01:40:34;;;;;;;1.30;1.13;;;;;;;;;;5118488;28;20268;-63
2023/03/10 01:43:18;;;;;;;3.13;0.90;;;;;;;;;;5118031;28;20543;-63
2023/03/10 01:46:04;;;;;;;1.20;1.00;;;;;;;;;;5112904;28;20203;-62
2023/03/10 01:48:35;;;;;;;0.95;0.70;;;;;;;;;;5117880;28;20290;-63
2023/03/10 01:51:03;;;;;;;1.05;0.80;;;;;;;;;;5118382;28;20864;-63
2023/03/10 01:53:31;;;;;;;1.65;1.00;;;;;;;;;;5118457;28;20203;-62
2023/03/10 01:56:02;;;;;;;0.90;0.80;;;;;;;;;;5118735;28;20543;-62
2023/03/10 01:58:33;;;;;;;1.05;0.80;;;;;;;;;;5118498;28;20234;-63
2023/03/10 02:01:01;;;;;;;1.23;0.90;;;;;;;;;;5118461;28;20207;-63
2023/03/10 02:03:30;;;;;;;1.30;0.80;;;;;;;;;;5118233;28;20283;-63
2023/03/10 02:06:00;;;;;;;1.67;0.90;;;;;;;;;;5118260;28;20536;-63
2023/03/10 02:08:30;;;;;;;1.27;0.93;;;;;;;;;;5118343;28;20638;-63
2023/03/10 02:11:00;;;;;;;1.00;0.90;;;;;;;;;;5109970;28;20512;-63
2023/03/10 02:13:28;;;;;;;0.80;0.77;;;;;;;;;;5118046;28;20211;-63
2023/03/10 02:15:55;;;;;;;1.48;1.05;;;;;;;;;;5121556;28;20207;-63
2023/03/10 02:18:23;;;;;;;1.33;1.00;;;;;;;;;;5122343;28;20276;-63
2023/03/10 02:20:56;;;;;;;1.30;1.00;;;;;;;;;;5122230;28;20602;-63
2023/03/10 02:23:26;;;;;;;0.85;0.60;;;;;;;;;;5122278;28;20575;-63
2023/03/10 02:25:57;;;;;;;1.10;0.70;;;;;;;;;;5122607;28;20209;-62
2023/03/10 02:28:26;;;;;;;1.25;0.88;;;;;;;;;;5122525;28;20207;-63
2023/03/10 02:30:54;;;;;;;1.10;0.80;;;;;;;;;;5122044;28;20310;-63
2023/03/10 02:33:24;;;;;;;1.30;0.70;;;;;;;;;;5121845;28;20246;-63
2023/03/10 02:35:52;;;;;;;1.10;0.90;;;;;;;;;;5122345;28;20202;-63
2023/03/10 02:38:20;;;;;;;1.20;0.60;;;;;;;;;;5122177;28;20207;-63
2023/03/10 02:40:48;;;;;;;1.17;0.88;;;;;;;;;;5122123;28;20202;-63
2023/03/10 02:43:18;;;;;;;1.20;0.90;;;;;;;;;;5122096;28;20203;-63
2023/03/10 02:45:49;;;;;;;1.20;0.80;;;;;;;;;;5121960;28;20214;-63
2023/03/10 02:48:19;;;;;;;1.17;0.80;;;;;;;;;;5121904;28;20209;-63
2023/03/10 02:50:48;;;;;;;1.00;0.70;;;;;;;;;;5121800;28;20256;-63
2023/03/10 02:53:17;;;;;;;0.98;0.60;;;;;;;;;;5121956;28;20239;-63
2023/03/10 02:55:45;;;;;;;1.05;0.90;;;;;;;;;;5122140;28;20672;-63
2023/03/10 02:58:13;;;;;;;0.93;0.88;;;;;;;;;;5121782;28;20246;-63
2023/03/10 03:00:42;;;;;;;0.65;0.65;;;;;;;;;;5121693;28;20207;-63
2023/03/10 03:03:12;;;;;;;1.08;0.77;;;;;;;;;;5122116;28;20575;-63
2023/03/10 03:05:40;;;;;;;1.00;0.80;;;;;;;;;;5121916;28;20661;-63
2023/03/10 03:08:08;;;;;;;1.05;0.70;;;;;;;;;;5121939;28;20226;-63
2023/03/10 03:10:36;;;;;;;0.70;0.70;;;;;;;;;;5121661;28;20598;-63
2023/03/10 03:13:04;;;;;;;0.73;0.68;;;;;;;;;;5121615;28;20210;-63
2023/03/10 03:15:32;;;;;;;1.10;0.60;;;;;;;;;;5121753;28;20203;-63
2023/03/10 03:18:00;;;;;;;0.80;0.80;;;;;;;;;;5121278;28;20214;-63
2023/03/10 03:20:30;;;;;;;0.90;0.70;;;;;;;;;;5117523;28;20227;-63
2023/03/10 03:22:58;;;;;;;1.33;0.85;;;;;;;;;;5117163;28;20204;-63
2023/03/10 03:25:26;;;;;;;0.80;0.70;;;;;;;;;;5112993;28;20203;-63
2023/03/10 03:27:54;;;;;;;0.85;0.75;;;;;;;;;;5121539;28;20494;-63
2023/03/10 03:30:23;;;;;;;0.80;0.60;;;;;;;;;;5121291;28;20242;-63
2023/03/10 03:32:51;;;;;;;0.70;0.70;;;;;;;;;;5120897;28;20341;-63
2023/03/10 03:35:21;;;;;;;1.00;0.70;;;;;;;;;;5121127;28;20289;-63
2023/03/10 03:37:50;;;;;;;0.90;0.70;;;;;;;;;;5121261;28;20566;-63
2023/03/10 03:40:17;;;;;;;1.23;0.85;;;;;;;;;;5121175;28;20733;-63
2023/03/10 03:42:46;;;;;;;1.13;0.60;;;;;;;;;;5120795;28;20260;-63
2023/03/10 03:45:16;;;;;;;1.10;0.90;;;;;;;;;;5121155;28;20248;-63
2023/03/10 03:47:45;;;;;;;0.93;0.70;;;;;;;;;;5120719;28;20211;-63
2023/03/10 03:50:13;;;;;;;0.95;0.70;;;;;;;;;;5120774;28;20213;-63
2023/03/10 03:52:41;;;;;;;1.17;0.70;;;;;;;;;;5119981;28;20285;-63
2023/03/10 03:55:11;;;;;;;0.98;0.60;;;;;;;;;;5120131;28;20203;-63
2023/03/10 03:57:40;;;;;;;1.15;0.70;;;;;;;;;;5120119;28;20238;-63
2023/03/10 04:00:09;;;;;;;0.80;0.65;;;;;;;;;;5120544;28;20258;-63
2023/03/10 04:02:36;;;;;;;0.80;0.70;;;;;;;;;;5115272;28;20211;-63
2023/03/10 04:05:04;;;;;;;1.20;0.70;;;;;;;;;;5116484;28;20262;-63
2023/03/10 04:07:32;;;;;;;0.70;0.70;;;;;;;;;;5120490;27;20203;-63
2023/03/10 04:10:00;;;;;;;0.70;0.60;;;;;;;;;;5120185;28;20523;-63
2023/03/10 04:12:29;;;;;;;0.60;0.60;;;;;;;;;;5120640;28;20354;-63
2023/03/10 04:14:57;;;;;;;0.70;0.60;;;;;;;;;;5120420;28;20203;-63
2023/03/10 04:17:25;;;;;;;0.93;0.73;;;;;;;;;;5120299;28;20582;-63
2023/03/10 04:19:53;;;;;;;1.00;0.77;;;;;;;;;;5120077;28;20657;-63
2023/03/10 04:22:20;;;;;;;0.60;0.60;;;;;;;;;;5120140;28;20246;-63
2023/03/10 04:24:48;;;;;;;0.60;0.60;;;;;;;;;;5119777;28;20267;-63
2023/03/10 04:27:16;;;;;;;0.50;0.50;;;;;;;;;;5119764;28;20672;-63
2023/03/10 04:29:45;;;;;;;0.80;0.80;;;;;;;;;;5120246;28;20268;-63
2023/03/10 04:32:13;;;;;;;0.70;0.55;;;;;;;;;;5119951;28;20285;-63
2023/03/10 04:34:41;;;;;;;0.73;0.60;;;;;;;;;;5119376;28;20202;-63
2023/03/10 04:37:08;;;;;;;0.57;0.52;;;;;;;;;;5119242;28;20242;-65
2023/03/10 04:39:37;;;;;;;0.60;0.60;;;;;;;;;;5119719;28;20517;-63
2023/03/10 04:42:05;;;;;;;0.80;0.50;;;;;;;;;;5119134;28;20203;-63
2023/03/10 04:44:32;;;;;;;0.70;0.60;;;;;;;;;;5119146;28;20203;-63
2023/03/10 04:47:02;;;;;;;0.65;0.45;;;;;;;;;;5119614;28;20198;-63
2023/03/10 04:49:29;;;;;;;0.80;0.70;;;;;;;;;;5119061;28;20596;-63
2023/03/10 04:51:57;;;;;;;0.98;0.70;;;;;;;;;;5119121;28;20207;-63
2023/03/10 04:54:25;;;;;;;0.80;0.57;;;;;;;;;;5118716;28;20211;-63
2023/03/10 04:56:53;;;;;;;0.60;0.60;;;;;;;;;;5119529;28;20203;-63
2023/03/10 04:59:20;;;;;;;0.50;0.50;;;;;;;;;;5118926;28;20265;-63
2023/03/10 05:01:48;;;;;;;0.70;0.60;;;;;;;;;;5119266;28;20203;-62
2023/03/10 05:04:16;;;;;;;0.50;0.50;;;;;;;;;;5118921;28;20672;-63
2023/03/10 05:06:44;;;;;;;0.85;0.70;;;;;;;;;;5119140;28;20297;-64
2023/03/10 05:09:12;;;;;;;1.33;0.60;;;;;;;;;;5119224;28;20306;-62
2023/03/10 05:11:39;;;;;;;1.00;0.60;;;;;;;;;;5118851;28;20662;-63
2023/03/10 05:14:07;;;;;;;0.63;0.60;;;;;;;;;;5118777;28;20232;-63
2023/03/10 05:16:34;;;;;;;0.80;0.50;;;;;;;;;;5119064;28;20238;-63
2023/03/10 05:19:01;;;;;;;0.85;0.60;;;;;;;;;;5118569;28;20210;-63
2023/03/10 05:21:30;;;;;;;0.50;0.50;;;;;;;;;;5118679;28;20485;-63
2023/03/10 05:23:58;;;;;;;1.27;0.70;;;;;;;;;;5118030;28;20233;-63
2023/03/10 05:26:26;;;;;;;0.80;0.50;;;;;;;;;;5117149;28;20579;-63
2023/03/10 05:28:53;;;;;;;0.68;0.60;;;;;;;;;;5117826;28;20450;-63
2023/03/10 05:31:24;;;;;;;0.40;0.40;;;;;;;;;;5117964;28;20480;-63
2023/03/10 05:33:52;;;;;;;0.55;0.50;;;;;;;;;;5116898;28;20312;-63
2023/03/10 05:36:20;;;;;;;0.50;0.50;;;;;;;;;;5117718;28;20527;-63
2023/03/10 05:38:49;;;;;;;0.57;0.50;;;;;;;;;;5118104;28;20285;-63
2023/03/10 05:41:16;;;;;;;1.15;0.60;;;;;;;;;;5117482;28;20223;-63
2023/03/10 05:43:44;;;;;;;0.52;0.50;;;;;;;;;;5117320;28;20299;-63
2023/03/10 05:46:11;;;;;;;0.80;0.70;;;;;;;;;;5117415;28;20434;-63
2023/03/10 05:48:39;;;;;;;0.60;0.57;;;;;;;;;;5116485;28;20309;-63
2023/03/10 05:51:07;;;;;;;0.82;0.47;;;;;;;;;;5116641;28;20199;-63
2023/03/10 05:53:35;;;;;;;1.05;0.55;;;;;;;;;;5116782;28;20209;-63
2023/03/10 05:56:07;;;;;;;1.13;0.80;;;;;;;;;;5116368;28;20234;-63
2023/03/10 05:58:35;;;;;;;0.60;0.52;;;;;;;;;;5115466;28;20211;-62
2023/03/10 06:01:02;;;;;;;0.70;0.57;;;;;;;;;;5115728;28;20229;-63
2023/03/10 06:03:30;;;;;;;0.60;0.60;;;;;;;;;;5115740;28;20294;-63
2023/03/10 06:05:57;;;;;;;0.63;0.60;;;;;;;;;;5115935;28;20209;-63
2023/03/10 06:08:25;;;;;;;0.60;0.60;;;;;;;;;;5115567;28;20285;-62
2023/03/10 06:10:52;;;;;;;1.33;0.70;;;;;;;;;;5115896;28;20199;-63
2023/03/10 06:13:21;;;;;;;0.50;0.50;;;;;;;;;;5116172;28;20305;-63
2023/03/10 06:15:50;;;;;;;0.73;0.60;;;;;;;;;;5116102;28;20202;-63
2023/03/10 06:18:18;;;;;;;1.00;0.60;;;;;;;;;;5114734;28;20718;-63
2023/03/10 06:20:46;;;;;;;0.63;0.50;;;;;;;;;;5115038;28;20570;-63
2023/03/10 06:23:14;;;;;;;0.50;0.50;;;;;;;;;;5115410;28;20238;-63
2023/03/10 06:25:41;;;;;;;0.80;0.50;;;;;;;;;;5115740;28;20489;-63
2023/03/10 06:28:09;;;;;;;0.50;0.50;;;;;;;;;;5116688;27;20202;-63
2023/03/10 06:30:38;;;;;;;0.70;0.60;;;;;;;;;;5135033;28;20220;-63
2023/03/10 06:33:05;;;;;;;0.70;0.52;;;;;;;;;;5136106;28;20325;-63
2023/03/10 06:35:33;;;;;;;0.40;0.40;;;;;;;;;;5135397;28;20605;-63
2023/03/10 06:38:01;;;;;;;0.45;0.40;;;;;;;;;;5135981;28;20281;-63
2023/03/10 06:40:28;;;;;;;0.50;0.50;;;;;;;;;;5135012;28;20226;-62
2023/03/10 06:42:56;;;;;;;0.40;0.40;;;;;;;;;;5134627;28;20597;-63
2023/03/10 06:45:23;;;;;;;0.57;0.40;;;;;;;;;;5134674;28;20282;-63
2023/03/10 06:47:52;;;;;;;1.20;0.60;;;;;;;;;;5136152;28;20551;-63
2023/03/10 06:50:20;;;;;;;0.70;0.60;;;;;;;;;;5134891;28;20573;-63
2023/03/10 06:52:47;;;;;;;0.70;0.57;;;;;;;;;;5136361;28;20313;-63
2023/03/10 06:55:15;;;;;;;0.50;0.50;;;;;;;;;;5136216;28;20238;-63
2023/03/10 06:57:43;;;;;;;0.70;0.60;;;;;;;;;;5136061;28;20213;-63
2023/03/10 07:00:14;;;;;;;1.55;0.50;;;;;;;;;;5136126;27;20507;-62
2023/03/10 07:02:42;;;;;;;0.68;0.50;;;;;;;;;;5139690;27;20250;-63
2023/03/10 07:05:12;;;;;;;0.95;0.50;;;;;;;;;;5139069;27;20211;-62
2023/03/10 07:07:40;;;;;;;0.65;0.55;;;;;;;;;;5139697;27;20646;-63
2023/03/10 07:10:08;;;;;;;1.30;0.60;;;;;;;;;;5140293;27;20288;-63
2023/03/10 07:12:35;;;;;;;0.70;0.60;;;;;;;;;;5140453;27;20297;-62
2023/03/10 07:15:03;;;;;;;1.00;0.60;;;;;;;;;;5140657;27;20250;-63
2023/03/10 07:17:31;;;;;;;1.45;0.60;;;;;;;;;;5140355;27;20262;-63
2023/03/10 07:19:58;;;;;;;1.08;0.68;;;;;;;;;;5139919;27;20317;-63
2023/03/10 07:22:27;;;;;;;0.65;0.50;;;;;;;;;;5130938;27;20293;-62
2023/03/10 07:24:55;;;;;;;1.52;0.60;;;;;;;;;;5140155;27;20284;-63
2023/03/10 07:27:23;;;;;;;1.58;0.50;;;;;;;;;;5130493;27;20202;-62
2023/03/10 07:29:50;;;;;;;0.57;0.57;;;;;;;;;;5140175;27;20297;-63
2023/03/10 07:32:17;;;;;;;0.80;0.52;;;;;;;;;;5140464;27;20257;-63
2023/03/10 07:34:45;;;;;;;1.92;0.50;;;;;;;;;;5140239;27;20202;-63
2023/03/10 07:37:12;;;;;;;1.23;0.70;;;;;;;;;;5140377;27;20228;-63
2023/03/10 07:39:41;;;;;;;1.25;0.60;;;;;;;;;;5140357;27;20225;-63
2023/03/10 07:42:09;;;;;;;0.80;0.47;;;;;;;;;;5139487;27;20297;-63
2023/03/10 07:44:36;;;;;;;0.68;0.52;;;;;;;;;;5139164;27;20202;-63
2023/03/10 07:47:04;;;;;;;0.75;0.60;;;;;;;;;;5139988;27;20232;-63
2023/03/10 07:49:31;;;;;;;0.68;0.60;;;;;;;;;;5138737;27;20210;-62
2023/03/10 07:51:59;;;;;;;0.75;0.52;;;;;;;;;;5139365;27;20201;-62
2023/03/10 07:54:26;;;;;;;2.13;0.63;;;;;;;;;;5138816;27;20297;-63
2023/03/10 07:56:55;;;;;;;2.50;0.90;;;;;;;;;;5139139;27;20300;-63
2023/03/10 07:59:22;;;;;;;1.33;0.80;;;;;;;;;;5138886;27;20288;-63
2023/03/10 08:01:50;;;;;;;0.60;0.60;;;;;;;;;;5138693;27;20313;-63
2023/03/10 08:04:17;;;;;;;1.35;0.60;;;;;;;;;;5138916;27;20233;-63
2023/03/10 08:06:46;;;;;;;1.25;0.70;;;;;;;;;;5138624;27;20252;-63
2023/03/10 08:09:13;;;;;;;1.92;0.63;;;;;;;;;;5139085;27;20199;-63
2023/03/10 08:11:41;;;;;;;0.73;0.47;;;;;;;;;;5139115;27;20298;-63
2023/03/10 08:14:09;;;;;;;0.98;0.50;;;;;;;;;;5138768;27;20669;-63
2023/03/10 08:16:37;;;;;;;0.88;0.70;;;;;;;;;;5138948;27;20212;-63
2023/03/10 08:19:06;;;;;;;1.63;0.65;;;;;;;;;;5139549;27;20285;-63
2023/03/10 08:21:33;;;;;;;1.13;0.50;;;;;;;;;;5138756;27;20226;-63
2023/03/10 08:24:01;;;;;;;0.95;0.63;;;;;;;;;;5138878;27;20210;-62
2023/03/10 08:26:28;;;;;;;1.42;0.60;;;;;;;;;;5138248;27;20292;-63
2023/03/10 08:28:56;;;;;;;1.05;0.50;;;;;;;;;;5137927;27;20200;-63
2023/03/10 08:31:25;;;;;;;1.00;0.65;;;;;;;;;;5137983;27;20293;-63
2023/03/10 08:33:55;;;;;;;1.38;0.60;;;;;;;;;;5137268;27;20317;-63
2023/03/10 08:36:24;;;;;;;1.88;0.70;;;;;;;;;;5138155;27;20213;-63
2023/03/10 08:38:52;;;;;;;0.82;0.50;;;;;;;;;;5138582;27;20202;-63
2023/03/10 08:41:21;;;;;;;0.57;0.52;;;;;;;;;;5137660;27;20268;-63
2023/03/10 08:43:49;;;;;;;0.80;0.50;;;;;;;;;;5137452;27;20198;-62
2023/03/10 08:46:17;;;;;;;1.13;0.65;;;;;;;;;;5137662;27;20684;-63
2023/03/10 08:48:46;;;;;;;1.25;0.57;;;;;;;;;;5136530;27;20296;-63
2023/03/10 08:51:13;;;;;;;1.00;0.60;;;;;;;;;;5136548;27;20493;-63
2023/03/10 08:53:41;;;;;;;0.50;0.40;;;;;;;;;;5137146;27;20203;-62
2023/03/10 08:56:08;;;;;;;0.60;0.47;;;;;;;;;;5137279;27;20194;-63
2023/03/10 08:58:36;;;;;;;0.55;0.55;;;;;;;;;;5137228;27;20289;-63
2023/03/10 09:01:03;;;;;;;0.52;0.50;;;;;;;;;;5137052;27;20229;-63
2023/03/10 09:03:31;;;;;;;0.70;0.60;;;;;;;;;;5137857;27;20606;-62
2023/03/10 09:06:00;;;;;;;0.60;0.60;;;;;;;;;;5137803;27;20296;-63
2023/03/10 09:08:27;;;;;;;0.70;0.50;;;;;;;;;;5138160;27;20297;-63
2023/03/10 09:10:54;;;;;;;0.55;0.50;;;;;;;;;;5137018;27;20786;-63
2023/03/10 09:13:22;;;;;;;1.45;0.75;;;;;;;;;;5138258;27;20297;-63
2023/03/10 09:15:51;;;;;;;0.40;0.30;;;;;;;;;;5138146;27;20545;-63
2023/03/10 09:18:19;;;;;;;1.55;0.50;;;;;;;;;;5137999;27;20567;-63
2023/03/10 09:20:47;;;;;;;0.70;0.40;;;;;;;;;;5137968;27;20222;-62
2023/03/10 09:23:16;;;;;;;0.60;0.50;;;;;;;;;;5137453;27;20244;-62
2023/03/10 09:25:43;;;;;;;0.80;0.50;;;;;;;;;;5137283;27;20234;-62
2023/03/10 09:28:12;;;;;;;0.63;0.50;;;;;;;;;;5137155;27;20284;-63
2023/03/10 09:30:41;;;;;;;0.40;0.40;;;;;;;;;;5138045;27;20190;-63
2023/03/10 09:33:14;;;;;;;0.93;0.60;;;;;;;;;;5136635;27;20334;-62
2023/03/10 09:35:41;;;;;;;0.80;0.52;;;;;;;;;;5137463;27;20297;-64
2023/03/10 09:38:09;;;;;;;0.55;0.45;;;;;;;;;;5137273;27;20203;-62
2023/03/10 09:40:39;;;;;;;0.45;0.40;;;;;;;;;;5137610;27;20599;-62
2023/03/10 09:43:07;;;;;;;0.82;0.52;;;;;;;;;;5136301;27;20294;-63
2023/03/10 09:45:38;;;;;;;0.60;0.40;;;;;;;;;;5136984;27;20202;-62
2023/03/10 09:48:11;;;;;;;0.77;0.57;;;;;;;;;;5136075;27;20230;-64
2023/03/10 09:50:41;;;;;;;0.82;0.60;;;;;;;;;;5136844;27;20212;-62
2023/03/10 09:53:14;;;;;;;0.60;0.50;;;;;;;;;;5136914;27;20202;-62
2023/03/10 09:55:44;;;;;;;1.02;0.60;;;;;;;;;;5136193;27;20201;-62
2023/03/10 09:58:13;;;;;;;0.57;0.43;;;;;;;;;;5136788;27;20244;-62
2023/03/10 10:00:42;;;;;;;0.50;0.50;;;;;;;;;;5137278;27;20301;-62
2023/03/10 10:03:14;;;;;;;0.70;0.52;;;;;;;;;;5137294;27;20202;-62
2023/03/10 10:05:42;;;;;;;0.52;0.50;;;;;;;;;;5136303;27;20292;-63
2023/03/10 10:08:17;;;;;;;0.43;0.40;;;;;;;;;;5136698;27;20228;-63
2023/03/10 10:10:47;;;;;;;0.93;0.63;;;;;;;;;;5136398;27;20205;-63
2023/03/10 10:13:16;;;;;;;0.75;0.50;;;;;;;;;;5136565;28;20308;-63
2023/03/10 10:15:45;;;;;;;0.90;0.50;;;;;;;;;;5136804;28;20213;-63
2023/03/10 10:18:14;;;;;;;0.60;0.60;;;;;;;;;;5136195;28;20271;-64
2023/03/10 10:20:43;;;;;;;0.90;0.43;;;;;;;;;;5136664;28;20286;-63
2023/03/10 10:23:22;;;;;;;0.70;0.50;;;;;;;;;;5136639;28;20224;-63
2023/03/10 10:25:50;;;;;;;0.77;0.43;;;;;;;;;;5135984;28;20297;-62
2023/03/10 10:28:22;;;;;;;0.47;0.40;;;;;;;;;;5136297;28;20574;-63
2023/03/10 10:30:50;;;;;;;0.65;0.40;;;;;;;;;;5135784;28;20218;-63
2023/03/10 10:33:17;;;;;;;0.93;0.60;;;;;;;;;;5135662;28;20322;-63
2023/03/10 10:35:46;;;;;;;0.85;0.60;;;;;;;;;;5136290;27;20212;-63
2023/03/10 10:38:24;;;;;;;0.70;0.40;;;;;;;;;;5139460;27;20206;-63
2023/03/10 10:40:57;;;;;;;0.60;0.55;;;;;;;;;;5139111;27;20213;-63
2023/03/10 10:43:25;;;;;;;0.70;0.50;;;;;;;;;;5139225;27;20212;-63
2023/03/10 10:45:54;;;;;;;0.68;0.50;;;;;;;;;;5139424;27;20201;-63
2023/03/10 10:48:39;;;;;;;1.02;0.57;;;;;;;;;;5140034;27;20615;-63
2023/03/10 10:51:07;;;;;;;0.65;0.50;;;;;;;;;;5139492;27;20198;-63
2023/03/10 10:53:37;;;;;;;0.85;0.50;;;;;;;;;;5139191;27;20240;-63
2023/03/10 10:56:07;;;;;;;0.93;0.60;;;;;;;;;;5139937;27;20303;-63
2023/03/10 10:58:35;;;;;;;0.73;0.40;;;;;;;;;;5139646;27;20198;-63
2023/03/10 11:01:04;;;;;;;1.23;0.60;;;;;;;;;;5139300;27;20817;-63
2023/03/10 11:03:33;;;;;;;0.63;0.60;;;;;;;;;;5139602;27;20202;-63
2023/03/10 11:06:01;;;;;;;0.60;0.50;;;;;;;;;;5139195;27;20705;-63
2023/03/10 11:08:31;;;;;;;0.80;0.38;;;;;;;;;;5138536;27;20203;-63
2023/03/10 11:11:00;;;;;;;0.55;0.50;;;;;;;;;;5138680;27;20197;-63
2023/03/10 11:13:32;;;;;;;0.95;0.50;;;;;;;;;;5138504;27;20205;-63
2023/03/10 11:16:05;;;;;;;1.15;0.50;;;;;;;;;;5138982;27;20213;-63
2023/03/10 11:18:33;;;;;;;0.75;0.40;;;;;;;;;;5137705;27;20234;-63
2023/03/10 11:21:03;;;;;;;1.48;0.70;;;;;;;;;;5138593;27;20293;-63
2023/03/10 11:23:32;;;;;;;2.38;0.77;;;;;;;;;;5137990;27;20285;-64
2023/03/10 11:26:02;;;;;;;1.50;0.75;;;;;;;;;;5138527;27;20559;-64
2023/03/10 11:28:38;;;;;;;1.38;0.50;;;;;;;;;;5137426;27;20251;-64
2023/03/10 11:31:12;;;;;;;0.98;0.52;;;;;;;;;;5137886;27;20300;-63
2023/03/10 11:33:44;;;;;;;2.33;0.60;;;;;;;;;;5137994;27;20321;-63
2023/03/10 11:36:17;;;;;;;1.15;0.50;;;;;;;;;;5138054;27;20543;-62
2023/03/10 11:38:47;;;;;;;2.15;0.50;;;;;;;;;;5137800;27;20355;-63
2023/03/10 11:41:15;;;;;;;2.08;0.60;;;;;;;;;;5138445;27;20511;-63
2023/03/10 11:43:50;;;;;;;1.58;0.60;;;;;;;;;;5137936;27;20691;-63
2023/03/10 11:46:20;;;;;;;1.20;0.60;;;;;;;;;;5137599;27;20209;-63
2023/03/10 11:48:53;;;;;;;1.95;0.45;;;;;;;;;;5137256;27;20205;-63
2023/03/10 11:51:30;;;;;;;2.15;0.70;;;;;;;;;;5137375;27;20258;-63
2023/03/10 11:53:58;;;;;;;1.85;0.50;;;;;;;;;;5137575;27;20221;-63
2023/03/10 11:56:27;;;;;;;2.15;0.60;;;;;;;;;;5137059;27;20213;-63
2023/03/10 11:58:58;;;;;;;0.85;0.50;;;;;;;;;;5137962;27;20297;-63
2023/03/10 12:01:29;;;;;;;2.50;0.75;;;;;;;;;;5138150;27;20201;-63
2023/03/10 12:03:59;;;;;;;2.20;0.60;;;;;;;;;;5137008;27;20255;-63
2023/03/10 12:06:30;;;;;;;0.60;0.40;;;;;;;;;;5137573;27;20209;-63
2023/03/10 12:08:59;;;;;;;0.60;0.50;;;;;;;;;;5138333;27;20241;-63
2023/03/10 12:11:28;;;;;;;0.50;0.35;;;;;;;;;;5138358;27;20202;-63
2023/03/10 12:13:59;;;;;;;2.08;0.50;;;;;;;;;;5102684;27;20491;-62
2023/03/10 12:16:28;;;;;;;2.95;0.50;;;;;;;;;;5096562;28;20498;-63
2023/03/10 12:18:55;;;;;;;1.85;0.50;;;;;;;;;;5096679;28;20239;-63
2023/03/10 12:21:24;;;;;;;2.22;0.60;;;;;;;;;;5095955;28;20301;-63
2023/03/10 12:23:53;;;;;;;1.70;0.50;;;;;;;;;;5096679;28;20302;-62
2023/03/10 12:26:38;;;;;;;0.98;0.40;;;;;;;;;;5097394;28;20203;-62
2023/03/10 12:29:31;;;;;;;1.17;0.60;;;;;;;;;;5096895;28;20597;-62
2023/03/10 12:31:59;;;;;;;1.30;0.50;;;;;;;;;;5099687;28;20684;-62
2023/03/10 12:34:27;;;;;;;0.47;0.40;;;;;;;;;;5117142;28;20494;-62
2023/03/10 12:36:56;;;;;;;0.70;0.40;;;;;;;;;;5116967;28;20203;-63
2023/03/10 12:39:31;;;;;;;0.68;0.50;;;;;;;;;;5116635;28;20753;-64
2023/03/10 12:41:59;;;;;;;0.70;0.50;;;;;;;;;;5116372;28;20321;-62
2023/03/10 12:44:38;;;;;;;0.50;0.40;;;;;;;;;;5116531;28;20202;-62
2023/03/10 12:47:26;;;;;;;0.90;0.50;;;;;;;;;;5116364;28;20575;-63
2023/03/10 12:49:55;;;;;;;0.50;0.40;;;;;;;;;;5116300;28;20587;-63
2023/03/10 12:52:27;;;;;;;1.10;0.50;;;;;;;;;;5114973;28;20206;-63
2023/03/10 12:55:02;;;;;;;0.73;0.50;;;;;;;;;;5116475;28;20285;-63
2023/03/10 12:57:33;;;;;;;1.08;0.47;;;;;;;;;;5116295;28;20210;-62
2023/03/10 13:00:05;;;;;;;1.15;0.40;;;;;;;;;;5115054;28;20203;-62
2023/03/10 13:02:38;;;;;;;0.65;0.40;;;;;;;;;;5117049;28;20226;-63
2023/03/10 13:05:06;;;;;;;0.63;0.40;;;;;;;;;;5115469;28;20290;-62
2023/03/10 13:07:35;;;;;;;0.40;0.32;;;;;;;;;;5116464;28;20203;-62
2023/03/10 13:10:03;;;;;;;1.10;0.40;;;;;;;;;;5116606;28;20598;-62
2023/03/10 13:12:32;;;;;;;0.75;0.30;;;;;;;;;;5116712;28;20199;-62
2023/03/10 13:15:03;;;;;;;1.00;0.50;;;;;;;;;;5115562;28;20306;-62
2023/03/10 13:17:32;;;;;;;0.65;0.47;;;;;;;;;;5115861;28;20203;-62
2023/03/10 13:20:04;;;;;;;1.25;0.28;;;;;;;;;;5116448;28;20210;-63
2023/03/10 13:22:31;;;;;;;1.00;0.30;;;;;;;;;;5116361;28;20233;-63
2023/03/10 13:25:00;;;;;;;1.20;0.40;;;;;;;;;;5115259;28;20205;-63
2023/03/10 13:27:32;;;;;;;0.85;0.40;;;;;;;;;;5115409;28;20289;-62
2023/03/10 13:30:02;;;;;;;0.50;0.35;;;;;;;;;;5115264;28;20302;-63
2023/03/10 13:32:30;;;;;;;0.60;0.40;;;;;;;;;;5107303;27;20250;-63
2023/03/10 13:35:12;;;;;;;0.57;0.40;;;;;;;;;;5094699;28;20293;-62
2023/03/10 13:37:40;;;;;;;1.65;0.45;;;;;;;;;;5095499;28;20526;-62
2023/03/10 13:40:08;;;;;;;0.95;0.40;;;;;;;;;;5095446;28;20204;-62
2023/03/10 13:42:35;;;;;;;0.68;0.38;;;;;;;;;;5095855;28;20263;-62
2023/03/10 13:45:03;;;;;;;0.77;0.30;;;;;;;;;;5095536;28;20209;-63
2023/03/10 13:47:31;;;;;;;0.57;0.30;;;;;;;;;;5096309;28;20310;-62
2023/03/10 13:50:00;;;;;;;0.20;0.20;;;;;;;;;;5094826;28;20210;-62
2023/03/10 13:52:30;;;;;;;0.52;0.30;;;;;;;;;;5094850;28;20528;-62
2023/03/10 13:55:05;;;;;;;0.50;0.32;;;;;;;;;;5094481;28;20314;-62
2023/03/10 13:57:34;;;;;;;0.43;0.25;;;;;;;;;;5095201;28;20199;-62
2023/03/10 14:00:03;;;;;;;0.40;0.35;;;;;;;;;;5093994;28;20752;-62
2023/03/10 14:02:32;;;;;;;1.05;0.50;;;;;;;;;;5095141;28;20253;-62
2023/03/10 14:05:01;;;;;;;0.40;0.30;;;;;;;;;;5095214;28;20203;-62
2023/03/10 14:07:29;;;;;;;0.47;0.30;;;;;;;;;;5095523;28;20614;-62
2023/03/10 14:10:13;;;;;;;0.82;0.38;;;;;;;;;;5094051;28;20286;-62
2023/03/10 14:12:42;;;;;;;0.40;0.35;;;;;;;;;;5095815;28;20290;-62
2023/03/10 14:15:10;;;;;;;0.30;0.30;;;;;;;;;;5095085;28;20254;-62
2023/03/10 14:17:38;;;;;;;0.30;0.30;;;;;;;;;;5094801;28;20486;-62
2023/03/10 14:20:08;;;;;;;0.35;0.30;;;;;;;;;;5094914;28;20206;-62
2023/03/10 14:22:39;;;;;;;0.43;0.40;;;;;;;;;;5094765;28;20223;-62
2023/03/10 14:25:17;;;;;;;0.35;0.35;;;;;;;;;;5094844;28;20218;-62
2023/03/10 14:27:45;;;;;;;0.50;0.30;;;;;;;;;;5094389;28;20250;-63
2023/03/10 14:30:23;;;;;;;0.30;0.25;;;;;;;;;;5094323;28;20679;-63
2023/03/10 14:32:50;;;;;;;0.40;0.20;;;;;;;;;;5104927;28;20524;-63
2023/03/10 14:35:20;;;;;;;0.30;0.30;;;;;;;;;;5114981;28;20679;-63
2023/03/10 14:37:47;;;;;;;0.85;0.30;;;;;;;;;;5113448;28;20203;-63
2023/03/10 14:40:15;;;;;;;0.30;0.30;;;;;;;;;;5115810;28;20294;-63
2023/03/10 14:42:43;;;;;;;0.40;0.32;;;;;;;;;;5114910;28;20210;-63
2023/03/10 14:45:19;;;;;;;0.70;0.30;;;;;;;;;;5115724;28;20199;-64
2023/03/10 14:47:46;;;;;;;0.30;0.30;;;;;;;;;;5116002;28;20282;-63
2023/03/10 14:50:14;;;;;;;0.55;0.30;;;;;;;;;;5115937;28;20203;-63
2023/03/10 14:52:43;;;;;;;0.55;0.30;;;;;;;;;;5115539;28;20199;-63
2023/03/10 14:55:11;;;;;;;0.90;0.50;;;;;;;;;;5115457;28;20293;-63